sensor_id;sensor_type;location;lat;lon;timestamp;P1;durP1;ratioP1;P2;durP2;ratioP2
11711;SDS011;5912;51.034;6.984;2023-11-18T00:02:22;40.00;;;19.53;;
11711;SDS011;5912;51.034;6.984;2023-11-18T00:04:49;40.73;;;19.93;;
11711;SDS011;5912;51.034;6.984;2023-11-18T00:07:14;36.70;;;18.70;;
11711;SDS011;5912;51.034;6.984;2023-11-18T00:09:39;38.93;;;18.67;;
11711;SDS011;5912;51.034;6.984;2023-11-18T00:12:05;39.03;;;19.50;;
11711;SDS011;5912;51.034;6.984;2023-11-18T00:14:31;36.53;;;19.23;;
11711;SDS011;5912;51.034;6.984;2023-11-18T00:16:56;37.60;;;17.97;;
11711;SDS011;5912;51.034;6.984;2023-11-18T00:19:24;34.77;;;18.27;;
11711;SDS011;5912;51.034;6.984;2023-11-18T00:21:49;36.20;;;18.20;;
11711;SDS011;5912;51.034;6.984;2023-11-18T00:24:14;34.90;;;17.83;;
11711;SDS011;5912;51.034;6.984;2023-11-18T00:26:39;36.17;;;17.43;;
11711;SDS011;5912;51.034;6.984;2023-11-18T00:29:05;33.97;;;16.77;;
11711;SDS011;5912;51.034;6.984;2023-11-18T00:31:30;33.40;;;17.50;;
11711;SDS011;5912;51.034;6.984;2023-11-18T00:33:55;31.83;;;16.30;;
11711;SDS011;5912;51.034;6.984;2023-11-18T00:36:21;33.37;;;16.83;;
11711;SDS011;5912;51.034;6.984;2023-11-18T00:38:46;33.07;;;16.53;;
11711;SDS011;5912;51.034;6.984;2023-11-18T00:41:12;32.60;;;16.20;;
11711;SDS011;5912;51.034;6.984;2023-11-18T00:43:37;34.07;;;16.73;;
11711;SDS011;5912;51.034;6.984;2023-11-18T00:46:03;31.43;;;15.80;;
11711;SDS011;5912;51.034;6.984;2023-11-18T00:48:30;32.70;;;17.13;;
11711;SDS011;5912;51.034;6.984;2023-11-18T00:50:55;30.27;;;15.53;;
11711;SDS011;5912;51.034;6.984;2023-11-18T00:53:21;31.63;;;15.80;;
11711;SDS011;5912;51.034;6.984;2023-11-18T00:55:47;32.03;;;16.90;;
11711;SDS011;5912;51.034;6.984;2023-11-18T00:58:12;30.77;;;15.53;;
11711;SDS011;5912;51.034;6.984;2023-11-18T01:00:38;34.87;;;16.73;;
11711;SDS011;5912;51.034;6.984;2023-11-18T01:03:04;32.33;;;16.80;;
11711;SDS011;5912;51.034;6.984;2023-11-18T01:05:29;32.03;;;16.87;;
11711;SDS011;5912;51.034;6.984;2023-11-18T01:07:56;31.50;;;15.63;;
11711;SDS011;5912;51.034;6.984;2023-11-18T01:10:21;29.20;;;16.20;;
11711;SDS011;5912;51.034;6.984;2023-11-18T01:12:47;31.83;;;15.87;;
11711;SDS011;5912;51.034;6.984;2023-11-18T01:15:12;31.57;;;16.13;;
11711;SDS011;5912;51.034;6.984;2023-11-18T01:17:38;35.53;;;16.57;;
11711;SDS011;5912;51.034;6.984;2023-11-18T01:20:03;27.73;;;15.27;;
11711;SDS011;5912;51.034;6.984;2023-11-18T01:22:34;29.60;;;15.50;;
11711;SDS011;5912;51.034;6.984;2023-11-18T01:25:00;27.83;;;14.97;;
11711;SDS011;5912;51.034;6.984;2023-11-18T01:27:26;25.90;;;13.70;;
11711;SDS011;5912;51.034;6.984;2023-11-18T01:29:51;26.43;;;15.37;;
11711;SDS011;5912;51.034;6.984;2023-11-18T01:32:16;28.13;;;14.83;;
11711;SDS011;5912;51.034;6.984;2023-11-18T01:34:44;27.60;;;14.70;;
11711;SDS011;5912;51.034;6.984;2023-11-18T01:37:14;23.93;;;13.47;;
11711;SDS011;5912;51.034;6.984;2023-11-18T01:39:40;25.40;;;14.33;;
11711;SDS011;5912;51.034;6.984;2023-11-18T01:42:05;24.23;;;13.80;;
11711;SDS011;5912;51.034;6.984;2023-11-18T01:44:31;22.10;;;13.50;;
11711;SDS011;5912;51.034;6.984;2023-11-18T01:46:56;24.73;;;13.87;;
11711;SDS011;5912;51.034;6.984;2023-11-18T01:49:23;23.43;;;13.40;;
11711;SDS011;5912;51.034;6.984;2023-11-18T01:51:49;22.57;;;13.63;;
11711;SDS011;5912;51.034;6.984;2023-11-18T01:54:19;23.90;;;13.90;;
11711;SDS011;5912;51.034;6.984;2023-11-18T01:56:46;20.97;;;13.13;;
11711;SDS011;5912;51.034;6.984;2023-11-18T01:59:13;21.60;;;12.70;;
11711;SDS011;5912;51.034;6.984;2023-11-18T02:01:48;22.93;;;13.00;;
11711;SDS011;5912;51.034;6.984;2023-11-18T02:04:14;24.80;;;13.07;;
11711;SDS011;5912;51.034;6.984;2023-11-18T02:06:40;22.30;;;13.03;;
11711;SDS011;5912;51.034;6.984;2023-11-18T02:09:06;21.67;;;12.17;;
11711;SDS011;5912;51.034;6.984;2023-11-18T02:11:36;20.67;;;12.17;;
11711;SDS011;5912;51.034;6.984;2023-11-18T02:14:07;21.00;;;12.03;;
11711;SDS011;5912;51.034;6.984;2023-11-18T02:16:38;19.87;;;12.33;;
11711;SDS011;5912;51.034;6.984;2023-11-18T02:19:07;20.43;;;12.20;;
11711;SDS011;5912;51.034;6.984;2023-11-18T02:21:46;19.80;;;12.37;;
11711;SDS011;5912;51.034;6.984;2023-11-18T02:24:23;20.20;;;11.83;;
11711;SDS011;5912;51.034;6.984;2023-11-18T02:26:49;22.80;;;11.80;;
11711;SDS011;5912;51.034;6.984;2023-11-18T02:29:15;17.70;;;11.57;;
11711;SDS011;5912;51.034;6.984;2023-11-18T02:31:40;24.10;;;12.80;;
11711;SDS011;5912;51.034;6.984;2023-11-18T02:34:12;18.20;;;11.80;;
11711;SDS011;5912;51.034;6.984;2023-11-18T02:36:47;23.33;;;12.87;;
11711;SDS011;5912;51.034;6.984;2023-11-18T02:39:21;22.57;;;12.53;;
11711;SDS011;5912;51.034;6.984;2023-11-18T02:41:51;21.37;;;12.63;;
11711;SDS011;5912;51.034;6.984;2023-11-18T02:44:17;21.80;;;12.97;;
11711;SDS011;5912;51.034;6.984;2023-11-18T02:46:45;22.97;;;12.20;;
11711;SDS011;5912;51.034;6.984;2023-11-18T02:49:11;20.13;;;11.70;;
11711;SDS011;5912;51.034;6.984;2023-11-18T02:51:37;21.40;;;12.97;;
11711;SDS011;5912;51.034;6.984;2023-11-18T02:54:04;20.37;;;11.80;;
11711;SDS011;5912;51.034;6.984;2023-11-18T02:56:31;23.53;;;13.20;;
11711;SDS011;5912;51.034;6.984;2023-11-18T02:58:57;22.13;;;12.30;;
11711;SDS011;5912;51.034;6.984;2023-11-18T03:01:22;23.90;;;12.87;;
11711;SDS011;5912;51.034;6.984;2023-11-18T03:03:50;22.53;;;12.40;;
11711;SDS011;5912;51.034;6.984;2023-11-18T03:06:15;22.27;;;12.50;;
11711;SDS011;5912;51.034;6.984;2023-11-18T03:08:41;22.03;;;11.63;;
11711;SDS011;5912;51.034;6.984;2023-11-18T03:11:06;23.23;;;11.93;;
11711;SDS011;5912;51.034;6.984;2023-11-18T03:13:34;22.80;;;12.50;;
11711;SDS011;5912;51.034;6.984;2023-11-18T03:15:59;24.67;;;12.60;;
11711;SDS011;5912;51.034;6.984;2023-11-18T03:18:25;24.20;;;12.73;;
11711;SDS011;5912;51.034;6.984;2023-11-18T03:20:50;23.20;;;12.37;;
11711;SDS011;5912;51.034;6.984;2023-11-18T03:23:16;20.00;;;12.07;;
11711;SDS011;5912;51.034;6.984;2023-11-18T03:25:41;21.90;;;12.30;;
11711;SDS011;5912;51.034;6.984;2023-11-18T03:28:07;22.03;;;12.33;;
11711;SDS011;5912;51.034;6.984;2023-11-18T03:30:33;24.67;;;13.13;;
11711;SDS011;5912;51.034;6.984;2023-11-18T03:33:00;24.80;;;12.60;;
11711;SDS011;5912;51.034;6.984;2023-11-18T03:35:25;24.37;;;12.87;;
11711;SDS011;5912;51.034;6.984;2023-11-18T03:37:51;24.63;;;13.50;;
11711;SDS011;5912;51.034;6.984;2023-11-18T03:40:16;22.17;;;12.83;;
11711;SDS011;5912;51.034;6.984;2023-11-18T03:42:42;22.73;;;12.23;;
11711;SDS011;5912;51.034;6.984;2023-11-18T03:45:08;23.67;;;12.73;;
11711;SDS011;5912;51.034;6.984;2023-11-18T03:47:36;22.37;;;13.10;;
11711;SDS011;5912;51.034;6.984;2023-11-18T03:50:02;24.50;;;13.17;;
11711;SDS011;5912;51.034;6.984;2023-11-18T03:52:28;21.40;;;11.67;;
11711;SDS011;5912;51.034;6.984;2023-11-18T03:54:54;23.53;;;12.87;;
11711;SDS011;5912;51.034;6.984;2023-11-18T03:57:22;22.17;;;13.03;;
11711;SDS011;5912;51.034;6.984;2023-11-18T03:59:47;23.53;;;12.83;;
11711;SDS011;5912;51.034;6.984;2023-11-18T04:02:12;20.40;;;12.07;;
11711;SDS011;5912;51.034;6.984;2023-11-18T04:04:38;22.43;;;12.93;;
11711;SDS011;5912;51.034;6.984;2023-11-18T04:07:03;21.57;;;12.00;;
11711;SDS011;5912;51.034;6.984;2023-11-18T04:09:29;24.87;;;13.37;;
11711;SDS011;5912;51.034;6.984;2023-11-18T04:11:55;25.87;;;14.00;;
11711;SDS011;5912;51.034;6.984;2023-11-18T04:14:20;27.50;;;13.80;;
11711;SDS011;5912;51.034;6.984;2023-11-18T04:16:46;22.70;;;13.90;;
11711;SDS011;5912;51.034;6.984;2023-11-18T04:19:13;24.10;;;13.13;;
11711;SDS011;5912;51.034;6.984;2023-11-18T04:21:38;27.63;;;13.93;;
11711;SDS011;5912;51.034;6.984;2023-11-18T04:24:04;26.10;;;14.37;;
11711;SDS011;5912;51.034;6.984;2023-11-18T04:26:30;24.00;;;14.23;;
11711;SDS011;5912;51.034;6.984;2023-11-18T04:28:56;24.30;;;13.20;;
11711;SDS011;5912;51.034;6.984;2023-11-18T04:31:22;26.37;;;13.80;;
11711;SDS011;5912;51.034;6.984;2023-11-18T04:33:47;30.93;;;14.20;;
11711;SDS011;5912;51.034;6.984;2023-11-18T04:36:13;26.53;;;13.63;;
11711;SDS011;5912;51.034;6.984;2023-11-18T04:38:39;24.83;;;14.57;;
11711;SDS011;5912;51.034;6.984;2023-11-18T04:41:05;25.70;;;14.37;;
11711;SDS011;5912;51.034;6.984;2023-11-18T04:43:31;27.27;;;14.07;;
11711;SDS011;5912;51.034;6.984;2023-11-18T04:45:56;24.77;;;13.60;;
11711;SDS011;5912;51.034;6.984;2023-11-18T04:48:22;24.33;;;14.10;;
11711;SDS011;5912;51.034;6.984;2023-11-18T04:50:47;27.53;;;13.87;;
11711;SDS011;5912;51.034;6.984;2023-11-18T04:53:12;26.10;;;14.10;;
11711;SDS011;5912;51.034;6.984;2023-11-18T04:58:40;25.20;;;13.73;;
11711;SDS011;5912;51.034;6.984;2023-11-18T05:01:05;26.00;;;13.63;;
11711;SDS011;5912;51.034;6.984;2023-11-18T05:03:31;25.00;;;14.07;;
11711;SDS011;5912;51.034;6.984;2023-11-18T05:05:56;25.97;;;13.43;;
11711;SDS011;5912;51.034;6.984;2023-11-18T05:08:22;27.43;;;13.27;;
11711;SDS011;5912;51.034;6.984;2023-11-18T05:10:53;25.13;;;12.87;;
11711;SDS011;5912;51.034;6.984;2023-11-18T05:13:19;23.63;;;12.73;;
11711;SDS011;5912;51.034;6.984;2023-11-18T05:15:45;26.00;;;13.63;;
11711;SDS011;5912;51.034;6.984;2023-11-18T05:18:12;21.97;;;13.00;;
11711;SDS011;5912;51.034;6.984;2023-11-18T05:20:39;24.57;;;14.67;;
11711;SDS011;5912;51.034;6.984;2023-11-18T05:23:11;23.03;;;12.77;;
11711;SDS011;5912;51.034;6.984;2023-11-18T05:25:40;26.80;;;14.37;;
11711;SDS011;5912;51.034;6.984;2023-11-18T05:28:08;24.63;;;13.50;;
11711;SDS011;5912;51.034;6.984;2023-11-18T05:30:34;22.70;;;13.57;;
11711;SDS011;5912;51.034;6.984;2023-11-18T05:33:06;23.37;;;13.17;;
11711;SDS011;5912;51.034;6.984;2023-11-18T05:35:31;23.40;;;14.27;;
11711;SDS011;5912;51.034;6.984;2023-11-18T05:37:58;23.77;;;13.43;;
11711;SDS011;5912;51.034;6.984;2023-11-18T05:40:23;24.23;;;13.77;;
11711;SDS011;5912;51.034;6.984;2023-11-18T05:42:50;22.40;;;12.87;;
11711;SDS011;5912;51.034;6.984;2023-11-18T05:45:18;25.93;;;13.90;;
11711;SDS011;5912;51.034;6.984;2023-11-18T05:47:55;25.77;;;14.20;;
11711;SDS011;5912;51.034;6.984;2023-11-18T05:50:22;24.60;;;12.93;;
11711;SDS011;5912;51.034;6.984;2023-11-18T05:52:49;23.97;;;12.80;;
11711;SDS011;5912;51.034;6.984;2023-11-18T05:55:15;20.90;;;13.77;;
11711;SDS011;5912;51.034;6.984;2023-11-18T05:57:41;22.83;;;12.67;;
11711;SDS011;5912;51.034;6.984;2023-11-18T06:00:07;20.87;;;12.57;;
11711;SDS011;5912;51.034;6.984;2023-11-18T06:02:34;21.17;;;12.33;;
11711;SDS011;5912;51.034;6.984;2023-11-18T06:05:01;23.07;;;12.53;;
11711;SDS011;5912;51.034;6.984;2023-11-18T06:07:28;24.43;;;12.70;;
11711;SDS011;5912;51.034;6.984;2023-11-18T06:09:54;22.70;;;13.03;;
11711;SDS011;5912;51.034;6.984;2023-11-18T06:12:19;19.33;;;11.70;;
11711;SDS011;5912;51.034;6.984;2023-11-18T06:14:45;19.47;;;12.57;;
11711;SDS011;5912;51.034;6.984;2023-11-18T06:17:11;22.40;;;12.87;;
11711;SDS011;5912;51.034;6.984;2023-11-18T06:19:38;21.20;;;12.47;;
11711;SDS011;5912;51.034;6.984;2023-11-18T06:22:03;20.60;;;12.47;;
11711;SDS011;5912;51.034;6.984;2023-11-18T06:24:28;21.43;;;11.93;;
11711;SDS011;5912;51.034;6.984;2023-11-18T06:26:54;20.70;;;12.37;;
11711;SDS011;5912;51.034;6.984;2023-11-18T06:29:19;20.07;;;12.13;;
11711;SDS011;5912;51.034;6.984;2023-11-18T06:31:45;22.87;;;12.40;;
11711;SDS011;5912;51.034;6.984;2023-11-18T06:34:10;19.13;;;12.20;;
11711;SDS011;5912;51.034;6.984;2023-11-18T06:36:37;20.80;;;12.03;;
11711;SDS011;5912;51.034;6.984;2023-11-18T06:39:03;19.17;;;11.63;;
11711;SDS011;5912;51.034;6.984;2023-11-18T06:41:30;18.13;;;12.10;;
11711;SDS011;5912;51.034;6.984;2023-11-18T06:43:58;20.53;;;12.13;;
11711;SDS011;5912;51.034;6.984;2023-11-18T06:46:27;20.40;;;11.97;;
11711;SDS011;5912;51.034;6.984;2023-11-18T06:49:00;21.70;;;12.30;;
11711;SDS011;5912;51.034;6.984;2023-11-18T06:51:29;18.37;;;11.33;;
11711;SDS011;5912;51.034;6.984;2023-11-18T06:53:59;18.80;;;12.27;;
11711;SDS011;5912;51.034;6.984;2023-11-18T06:56:26;20.37;;;12.37;;
11711;SDS011;5912;51.034;6.984;2023-11-18T06:58:52;18.53;;;12.50;;
11711;SDS011;5912;51.034;6.984;2023-11-18T07:01:22;18.53;;;11.63;;
11711;SDS011;5912;51.034;6.984;2023-11-18T07:03:48;19.80;;;11.80;;
11711;SDS011;5912;51.034;6.984;2023-11-18T07:06:17;18.57;;;12.30;;
11711;SDS011;5912;51.034;6.984;2023-11-18T07:08:51;20.30;;;12.00;;
11711;SDS011;5912;51.034;6.984;2023-11-18T07:11:17;19.77;;;12.17;;
11711;SDS011;5912;51.034;6.984;2023-11-18T07:13:43;18.73;;;12.20;;
11711;SDS011;5912;51.034;6.984;2023-11-18T07:16:10;19.33;;;12.07;;
11711;SDS011;5912;51.034;6.984;2023-11-18T07:18:35;18.63;;;12.33;;
11711;SDS011;5912;51.034;6.984;2023-11-18T07:21:02;20.63;;;11.93;;
11711;SDS011;5912;51.034;6.984;2023-11-18T07:23:29;18.23;;;12.10;;
11711;SDS011;5912;51.034;6.984;2023-11-18T07:25:55;17.10;;;11.20;;
11711;SDS011;5912;51.034;6.984;2023-11-18T07:28:21;19.47;;;11.70;;
11711;SDS011;5912;51.034;6.984;2023-11-18T07:30:47;17.77;;;11.27;;
11711;SDS011;5912;51.034;6.984;2023-11-18T07:33:15;18.23;;;11.57;;
11711;SDS011;5912;51.034;6.984;2023-11-18T07:35:44;16.23;;;10.50;;
11711;SDS011;5912;51.034;6.984;2023-11-18T07:38:13;17.23;;;10.83;;
11711;SDS011;5912;51.034;6.984;2023-11-18T07:40:40;15.70;;;10.10;;
11711;SDS011;5912;51.034;6.984;2023-11-18T07:43:11;18.13;;;11.43;;
11711;SDS011;5912;51.034;6.984;2023-11-18T07:45:37;16.47;;;11.17;;
11711;SDS011;5912;51.034;6.984;2023-11-18T07:48:07;15.17;;;10.57;;
11711;SDS011;5912;51.034;6.984;2023-11-18T07:50:44;14.80;;;10.50;;
11711;SDS011;5912;51.034;6.984;2023-11-18T07:53:09;15.57;;;10.07;;
11711;SDS011;5912;51.034;6.984;2023-11-18T07:55:36;15.73;;;10.57;;
11711;SDS011;5912;51.034;6.984;2023-11-18T07:58:07;15.77;;;9.90;;
11711;SDS011;5912;51.034;6.984;2023-11-18T08:00:38;14.90;;;10.17;;
11711;SDS011;5912;51.034;6.984;2023-11-18T08:03:05;14.90;;;10.13;;
11711;SDS011;5912;51.034;6.984;2023-11-18T08:05:36;17.30;;;10.70;;
11711;SDS011;5912;51.034;6.984;2023-11-18T08:08:01;14.33;;;9.33;;
11711;SDS011;5912;51.034;6.984;2023-11-18T08:10:26;14.30;;;9.30;;
11711;SDS011;5912;51.034;6.984;2023-11-18T08:12:53;15.17;;;9.50;;
11711;SDS011;5912;51.034;6.984;2023-11-18T08:15:19;13.53;;;9.53;;
11711;SDS011;5912;51.034;6.984;2023-11-18T08:17:45;13.17;;;8.80;;
11711;SDS011;5912;51.034;6.984;2023-11-18T08:20:10;14.23;;;9.53;;
11711;SDS011;5912;51.034;6.984;2023-11-18T08:22:42;11.87;;;8.57;;
11711;SDS011;5912;51.034;6.984;2023-11-18T08:25:11;12.50;;;9.27;;
11711;SDS011;5912;51.034;6.984;2023-11-18T08:27:38;12.07;;;8.60;;
11711;SDS011;5912;51.034;6.984;2023-11-18T08:30:05;17.73;;;9.40;;
11711;SDS011;5912;51.034;6.984;2023-11-18T08:32:36;11.33;;;8.80;;
11711;SDS011;5912;51.034;6.984;2023-11-18T08:35:03;11.20;;;8.37;;
11711;SDS011;5912;51.034;6.984;2023-11-18T08:37:30;12.07;;;8.63;;
11711;SDS011;5912;51.034;6.984;2023-11-18T08:39:56;12.03;;;8.40;;
11711;SDS011;5912;51.034;6.984;2023-11-18T08:42:21;11.33;;;8.03;;
11711;SDS011;5912;51.034;6.984;2023-11-18T08:44:47;11.93;;;8.07;;
11711;SDS011;5912;51.034;6.984;2023-11-18T08:47:13;10.97;;;7.87;;
11711;SDS011;5912;51.034;6.984;2023-11-18T08:49:38;13.80;;;7.97;;
11711;SDS011;5912;51.034;6.984;2023-11-18T08:52:05;12.67;;;7.40;;
11711;SDS011;5912;51.034;6.984;2023-11-18T08:54:35;10.97;;;7.87;;
11711;SDS011;5912;51.034;6.984;2023-11-18T08:57:06;11.83;;;7.87;;
11711;SDS011;5912;51.034;6.984;2023-11-18T08:59:48;11.60;;;7.47;;
11711;SDS011;5912;51.034;6.984;2023-11-18T09:02:14;12.10;;;7.37;;
11711;SDS011;5912;51.034;6.984;2023-11-18T09:04:42;10.23;;;7.23;;
11711;SDS011;5912;51.034;6.984;2023-11-18T09:07:08;9.77;;;7.50;;
11711;SDS011;5912;51.034;6.984;2023-11-18T09:09:35;9.37;;;7.17;;
11711;SDS011;5912;51.034;6.984;2023-11-18T09:12:00;10.88;;;7.25;;
11711;SDS011;5912;51.034;6.984;2023-11-18T09:14:27;11.97;;;7.77;;
11711;SDS011;5912;51.034;6.984;2023-11-18T09:16:53;10.33;;;7.53;;
11711;SDS011;5912;51.034;6.984;2023-11-18T09:19:24;9.20;;;7.67;;
11711;SDS011;5912;51.034;6.984;2023-11-18T09:21:50;10.10;;;6.83;;
11711;SDS011;5912;51.034;6.984;2023-11-18T09:24:16;12.13;;;7.95;;
11711;SDS011;5912;51.034;6.984;2023-11-18T09:26:45;12.33;;;7.77;;
11711;SDS011;5912;51.034;6.984;2023-11-18T09:29:12;10.30;;;7.23;;
11711;SDS011;5912;51.034;6.984;2023-11-18T09:31:42;9.87;;;7.03;;
11711;SDS011;5912;51.034;6.984;2023-11-18T09:34:10;10.93;;;7.03;;
11711;SDS011;5912;51.034;6.984;2023-11-18T09:36:40;9.47;;;6.60;;
11711;SDS011;5912;51.034;6.984;2023-11-18T09:39:08;11.30;;;6.80;;
11711;SDS011;5912;51.034;6.984;2023-11-18T09:41:35;9.80;;;7.00;;
11711;SDS011;5912;51.034;6.984;2023-11-18T09:44:00;7.60;;;6.57;;
11711;SDS011;5912;51.034;6.984;2023-11-18T09:46:27;11.27;;;7.23;;
11711;SDS011;5912;51.034;6.984;2023-11-18T09:49:08;9.73;;;7.50;;
11711;SDS011;5912;51.034;6.984;2023-11-18T09:51:43;9.60;;;7.57;;
11711;SDS011;5912;51.034;6.984;2023-11-18T09:54:19;9.10;;;6.75;;
11711;SDS011;5912;51.034;6.984;2023-11-18T09:57:04;9.10;;;6.97;;
11711;SDS011;5912;51.034;6.984;2023-11-18T10:02:35;10.37;;;6.80;;
11711;SDS011;5912;51.034;6.984;2023-11-18T10:05:04;8.10;;;6.43;;
11711;SDS011;5912;51.034;6.984;2023-11-18T10:07:37;9.88;;;6.00;;
11711;SDS011;5912;51.034;6.984;2023-11-18T10:10:06;8.77;;;6.60;;
11711;SDS011;5912;51.034;6.984;2023-11-18T10:12:40;8.93;;;6.20;;
11711;SDS011;5912;51.034;6.984;2023-11-18T10:15:07;7.77;;;6.10;;
11711;SDS011;5912;51.034;6.984;2023-11-18T10:17:37;8.93;;;7.10;;
11711;SDS011;5912;51.034;6.984;2023-11-18T10:20:20;11.07;;;6.70;;
11711;SDS011;5912;51.034;6.984;2023-11-18T10:22:50;8.18;;;6.43;;
11711;SDS011;5912;51.034;6.984;2023-11-18T10:25:30;10.77;;;6.60;;
11711;SDS011;5912;51.034;6.984;2023-11-18T10:27:55;9.85;;;6.38;;
11711;SDS011;5912;51.034;6.984;2023-11-18T10:30:23;7.07;;;5.85;;
11711;SDS011;5912;51.034;6.984;2023-11-18T10:32:59;9.48;;;6.47;;
11711;SDS011;5912;51.034;6.984;2023-11-18T10:35:32;7.40;;;6.17;;
11711;SDS011;5912;51.034;6.984;2023-11-18T10:37:57;9.60;;;6.70;;
11711;SDS011;5912;51.034;6.984;2023-11-18T10:40:26;7.13;;;5.85;;
11711;SDS011;5912;51.034;6.984;2023-11-18T10:42:52;8.00;;;6.03;;
11711;SDS011;5912;51.034;6.984;2023-11-18T10:45:23;7.80;;;6.07;;
11711;SDS011;5912;51.034;6.984;2023-11-18T10:47:52;8.95;;;6.43;;
11711;SDS011;5912;51.034;6.984;2023-11-18T10:50:20;7.47;;;5.53;;
11711;SDS011;5912;51.034;6.984;2023-11-18T10:52:47;8.07;;;5.60;;
11711;SDS011;5912;51.034;6.984;2023-11-18T10:55:13;6.37;;;5.33;;
11711;SDS011;5912;51.034;6.984;2023-11-18T10:57:44;7.03;;;5.15;;
11711;SDS011;5912;51.034;6.984;2023-11-18T11:00:09;7.60;;;5.60;;
11711;SDS011;5912;51.034;6.984;2023-11-18T11:02:39;7.53;;;5.57;;
11711;SDS011;5912;51.034;6.984;2023-11-18T11:05:09;7.80;;;5.40;;
11711;SDS011;5912;51.034;6.984;2023-11-18T11:07:57;7.95;;;5.32;;
11711;SDS011;5912;51.034;6.984;2023-11-18T11:10:24;8.02;;;5.65;;
11711;SDS011;5912;51.034;6.984;2023-11-18T11:12:53;7.23;;;5.60;;
11711;SDS011;5912;51.034;6.984;2023-11-18T11:15:30;8.48;;;5.10;;
11711;SDS011;5912;51.034;6.984;2023-11-18T11:18:04;8.23;;;5.10;;
11711;SDS011;5912;51.034;6.984;2023-11-18T11:20:37;6.27;;;5.23;;
11711;SDS011;5912;51.034;6.984;2023-11-18T11:23:21;6.53;;;4.90;;
11711;SDS011;5912;51.034;6.984;2023-11-18T11:26:10;7.18;;;4.70;;
11711;SDS011;5912;51.034;6.984;2023-11-18T11:31:39;7.87;;;5.43;;
11711;SDS011;5912;51.034;6.984;2023-11-18T11:34:18;8.43;;;5.45;;
11711;SDS011;5912;51.034;6.984;2023-11-18T11:36:48;7.97;;;4.80;;
11711;SDS011;5912;51.034;6.984;2023-11-18T11:39:16;6.68;;;4.55;;
11711;SDS011;5912;51.034;6.984;2023-11-18T11:41:51;11.77;;;4.80;;
11711;SDS011;5912;51.034;6.984;2023-11-18T11:44:17;7.47;;;5.97;;
11711;SDS011;5912;51.034;6.984;2023-11-18T11:46:45;7.55;;;5.57;;
11711;SDS011;5912;51.034;6.984;2023-11-18T11:49:18;6.90;;;5.03;;
11711;SDS011;5912;51.034;6.984;2023-11-18T11:51:57;6.57;;;4.77;;
11711;SDS011;5912;51.034;6.984;2023-11-18T11:54:32;8.80;;;4.47;;
11711;SDS011;5912;51.034;6.984;2023-11-18T11:57:03;8.18;;;4.75;;
11711;SDS011;5912;51.034;6.984;2023-11-18T12:02:23;7.28;;;4.80;;
11711;SDS011;5912;51.034;6.984;2023-11-18T12:04:54;6.32;;;4.85;;
11711;SDS011;5912;51.034;6.984;2023-11-18T12:07:23;6.65;;;5.25;;
11711;SDS011;5912;51.034;6.984;2023-11-18T12:09:55;6.95;;;4.88;;
11711;SDS011;5912;51.034;6.984;2023-11-18T12:12:23;7.88;;;4.72;;
11711;SDS011;5912;51.034;6.984;2023-11-18T12:14:54;6.03;;;4.40;;
11711;SDS011;5912;51.034;6.984;2023-11-18T12:17:21;5.78;;;4.82;;
11711;SDS011;5912;51.034;6.984;2023-11-18T12:19:48;7.28;;;4.72;;
11711;SDS011;5912;51.034;6.984;2023-11-18T12:24:44;7.85;;;5.30;;
11711;SDS011;5912;51.034;6.984;2023-11-18T12:27:09;8.07;;;4.80;;
11711;SDS011;5912;51.034;6.984;2023-11-18T12:29:41;7.22;;;4.45;;
11711;SDS011;5912;51.034;6.984;2023-11-18T12:32:10;6.40;;;4.88;;
11711;SDS011;5912;51.034;6.984;2023-11-18T12:34:50;7.28;;;4.35;;
11711;SDS011;5912;51.034;6.984;2023-11-18T12:40:45;5.47;;;4.28;;
11711;SDS011;5912;51.034;6.984;2023-11-18T12:43:26;5.80;;;4.38;;
11711;SDS011;5912;51.034;6.984;2023-11-18T12:49:04;5.55;;;4.07;;
11711;SDS011;5912;51.034;6.984;2023-11-18T12:51:30;8.73;;;4.57;;
11711;SDS011;5912;51.034;6.984;2023-11-18T12:53:59;8.05;;;3.90;;
11711;SDS011;5912;51.034;6.984;2023-11-18T12:56:27;8.60;;;4.37;;
11711;SDS011;5912;51.034;6.984;2023-11-18T12:58:55;8.40;;;4.57;;
11711;SDS011;5912;51.034;6.984;2023-11-18T13:01:20;5.28;;;3.90;;
11711;SDS011;5912;51.034;6.984;2023-11-18T13:03:47;8.50;;;4.50;;
11711;SDS011;5912;51.034;6.984;2023-11-18T13:06:12;5.75;;;3.80;;
11711;SDS011;5912;51.034;6.984;2023-11-18T13:08:39;6.30;;;4.20;;
11711;SDS011;5912;51.034;6.984;2023-11-18T13:11:05;7.13;;;3.72;;
11711;SDS011;5912;51.034;6.984;2023-11-18T13:13:33;6.18;;;4.18;;
11711;SDS011;5912;51.034;6.984;2023-11-18T13:15:59;7.47;;;4.05;;
11711;SDS011;5912;51.034;6.984;2023-11-18T13:18:26;4.78;;;3.58;;
11711;SDS011;5912;51.034;6.984;2023-11-18T13:20:55;7.78;;;3.88;;
11711;SDS011;5912;51.034;6.984;2023-11-18T13:23:25;5.70;;;3.85;;
11711;SDS011;5912;51.034;6.984;2023-11-18T13:25:53;6.93;;;4.15;;
11711;SDS011;5912;51.034;6.984;2023-11-18T13:28:24;7.45;;;3.80;;
11711;SDS011;5912;51.034;6.984;2023-11-18T13:30:50;6.15;;;3.78;;
11711;SDS011;5912;51.034;6.984;2023-11-18T13:33:16;7.50;;;3.40;;
11711;SDS011;5912;51.034;6.984;2023-11-18T13:35:42;4.82;;;3.70;;
11711;SDS011;5912;51.034;6.984;2023-11-18T13:38:08;6.78;;;3.58;;
11711;SDS011;5912;51.034;6.984;2023-11-18T13:40:52;6.32;;;3.97;;
11711;SDS011;5912;51.034;6.984;2023-11-18T13:43:17;5.80;;;3.90;;
11711;SDS011;5912;51.034;6.984;2023-11-18T13:45:43;7.40;;;3.40;;
11711;SDS011;5912;51.034;6.984;2023-11-18T13:48:08;5.87;;;3.60;;
11711;SDS011;5912;51.034;6.984;2023-11-18T13:50:37;5.40;;;4.00;;
11711;SDS011;5912;51.034;6.984;2023-11-18T13:53:03;6.68;;;3.60;;
11711;SDS011;5912;51.034;6.984;2023-11-18T13:55:28;4.60;;;3.30;;
11711;SDS011;5912;51.034;6.984;2023-11-18T13:57:57;6.78;;;2.92;;
11711;SDS011;5912;51.034;6.984;2023-11-18T14:00:25;7.05;;;3.45;;
11711;SDS011;5912;51.034;6.984;2023-11-18T14:02:55;5.13;;;3.35;;
11711;SDS011;5912;51.034;6.984;2023-11-18T14:05:22;3.78;;;2.65;;
11711;SDS011;5912;51.034;6.984;2023-11-18T14:07:52;5.43;;;2.83;;
11711;SDS011;5912;51.034;6.984;2023-11-18T14:10:24;7.13;;;3.47;;
11711;SDS011;5912;51.034;6.984;2023-11-18T14:13:05;5.00;;;3.13;;
11711;SDS011;5912;51.034;6.984;2023-11-18T14:15:31;4.57;;;3.30;;
11711;SDS011;5912;51.034;6.984;2023-11-18T14:18:00;7.95;;;3.38;;
11711;SDS011;5912;51.034;6.984;2023-11-18T14:20:26;3.88;;;2.88;;
11711;SDS011;5912;51.034;6.984;2023-11-18T14:22:51;5.65;;;3.20;;
11711;SDS011;5912;51.034;6.984;2023-11-18T14:25:17;5.78;;;3.05;;
11711;SDS011;5912;51.034;6.984;2023-11-18T14:27:42;4.78;;;2.70;;
11711;SDS011;5912;51.034;6.984;2023-11-18T14:30:07;4.47;;;2.90;;
11711;SDS011;5912;51.034;6.984;2023-11-18T14:32:34;4.15;;;3.08;;
11711;SDS011;5912;51.034;6.984;2023-11-18T14:35:00;6.57;;;3.03;;
11711;SDS011;5912;51.034;6.984;2023-11-18T14:37:25;5.07;;;2.90;;
11711;SDS011;5912;51.034;6.984;2023-11-18T14:39:50;4.78;;;3.13;;
11711;SDS011;5912;51.034;6.984;2023-11-18T14:42:17;6.27;;;3.27;;
11711;SDS011;5912;51.034;6.984;2023-11-18T14:44:43;7.15;;;3.33;;
11711;SDS011;5912;51.034;6.984;2023-11-18T14:47:08;4.57;;;3.10;;
11711;SDS011;5912;51.034;6.984;2023-11-18T14:49:34;6.05;;;3.50;;
11711;SDS011;5912;51.034;6.984;2023-11-18T14:55:25;6.00;;;3.17;;
11711;SDS011;5912;51.034;6.984;2023-11-18T14:57:51;4.70;;;3.42;;
11711;SDS011;5912;51.034;6.984;2023-11-18T15:00:17;4.43;;;3.50;;
11711;SDS011;5912;51.034;6.984;2023-11-18T15:02:47;6.03;;;3.43;;
11711;SDS011;5912;51.034;6.984;2023-11-18T15:05:15;5.23;;;3.17;;
11711;SDS011;5912;51.034;6.984;2023-11-18T15:07:48;5.38;;;3.60;;
11711;SDS011;5912;51.034;6.984;2023-11-18T15:10:15;7.83;;;3.87;;
11711;SDS011;5912;51.034;6.984;2023-11-18T15:12:44;6.63;;;4.20;;
11711;SDS011;5912;51.034;6.984;2023-11-18T15:15:13;6.15;;;3.78;;